sensor_id;sensor_type;location;lat;lon;timestamp;P1;durP1;ratioP1;P2;durP2;ratioP2
9156;SDS011;4613;48.392;9.998;2022-11-20T00:00:50;2.17;;;1.85;;
9156;SDS011;4613;48.392;9.998;2022-11-20T00:03:40;1.98;;;1.85;;
9156;SDS011;4613;48.392;9.998;2022-11-20T00:06:29;2.17;;;1.88;;
9156;SDS011;4613;48.392;9.998;2022-11-20T00:09:19;2.30;;;2.10;;
9156;SDS011;4613;48.392;9.998;2022-11-20T00:12:09;2.13;;;1.92;;
9156;SDS011;4613;48.392;9.998;2022-11-20T00:14:59;1.92;;;1.70;;
9156;SDS011;4613;48.392;9.998;2022-11-20T00:17:48;2.00;;;1.80;;
9156;SDS011;4613;48.392;9.998;2022-11-20T00:20:37;2.10;;;1.65;;
9156;SDS011;4613;48.392;9.998;2022-11-20T00:23:26;2.33;;;1.63;;
9156;SDS011;4613;48.392;9.998;2022-11-20T00:26:16;2.33;;;1.95;;
9156;SDS011;4613;48.392;9.998;2022-11-20T00:29:08;2.20;;;2.00;;
9156;SDS011;4613;48.392;9.998;2022-11-20T00:31:58;2.25;;;1.58;;
9156;SDS011;4613;48.392;9.998;2022-11-20T00:34:52;4.03;;;1.70;;
9156;SDS011;4613;48.392;9.998;2022-11-20T00:37:41;2.03;;;1.60;;
9156;SDS011;4613;48.392;9.998;2022-11-20T00:40:31;1.95;;;1.75;;
9156;SDS011;4613;48.392;9.998;2022-11-20T00:43:20;2.15;;;1.80;;
9156;SDS011;4613;48.392;9.998;2022-11-20T00:46:14;2.17;;;1.98;;
9156;SDS011;4613;48.392;9.998;2022-11-20T00:49:07;2.00;;;1.85;;
9156;SDS011;4613;48.392;9.998;2022-11-20T00:51:57;1.85;;;1.63;;
9156;SDS011;4613;48.392;9.998;2022-11-20T00:54:46;1.80;;;1.70;;
9156;SDS011;4613;48.392;9.998;2022-11-20T00:57:35;1.95;;;1.75;;
9156;SDS011;4613;48.392;9.998;2022-11-20T01:00:24;2.25;;;1.60;;
9156;SDS011;4613;48.392;9.998;2022-11-20T01:03:14;1.67;;;1.58;;
9156;SDS011;4613;48.392;9.998;2022-11-20T01:06:04;1.77;;;1.63;;
9156;SDS011;4613;48.392;9.998;2022-11-20T01:08:55;1.42;;;1.33;;
9156;SDS011;4613;48.392;9.998;2022-11-20T01:11:46;2.63;;;2.10;;
9156;SDS011;4613;48.392;9.998;2022-11-20T01:14:36;1.88;;;1.77;;
9156;SDS011;4613;48.392;9.998;2022-11-20T01:17:25;1.75;;;1.65;;
9156;SDS011;4613;48.392;9.998;2022-11-20T01:20:15;1.67;;;1.58;;
9156;SDS011;4613;48.392;9.998;2022-11-20T01:23:04;1.70;;;1.60;;
9156;SDS011;4613;48.392;9.998;2022-11-20T01:25:55;2.10;;;1.70;;
9156;SDS011;4613;48.392;9.998;2022-11-20T01:28:48;2.45;;;1.75;;
9156;SDS011;4613;48.392;9.998;2022-11-20T01:31:38;2.78;;;2.22;;
9156;SDS011;4613;48.392;9.998;2022-11-20T01:34:27;2.17;;;1.60;;
9156;SDS011;4613;48.392;9.998;2022-11-20T01:37:17;2.10;;;1.83;;
9156;SDS011;4613;48.392;9.998;2022-11-20T01:40:06;2.92;;;1.60;;
9156;SDS011;4613;48.392;9.998;2022-11-20T01:43:00;1.60;;;1.50;;
9156;SDS011;4613;48.392;9.998;2022-11-20T01:46:14;1.83;;;1.70;;
9156;SDS011;4613;48.392;9.998;2022-11-20T01:49:10;1.80;;;1.70;;
9156;SDS011;4613;48.392;9.998;2022-11-20T01:52:18;1.92;;;1.67;;
9156;SDS011;4613;48.392;9.998;2022-11-20T01:55:20;1.83;;;1.73;;
9156;SDS011;4613;48.392;9.998;2022-11-20T01:58:14;1.88;;;1.70;;
9156;SDS011;4613;48.392;9.998;2022-11-20T02:01:07;2.05;;;1.85;;
9156;SDS011;4613;48.392;9.998;2022-11-20T02:03:57;2.63;;;1.98;;
9156;SDS011;4613;48.392;9.998;2022-11-20T02:06:48;2.05;;;1.85;;
9156;SDS011;4613;48.392;9.998;2022-11-20T02:09:42;2.35;;;2.15;;
9156;SDS011;4613;48.392;9.998;2022-11-20T02:12:32;1.80;;;1.70;;
9156;SDS011;4613;48.392;9.998;2022-11-20T02:15:40;1.90;;;1.80;;
9156;SDS011;4613;48.392;9.998;2022-11-20T02:18:30;1.63;;;1.52;;
9156;SDS011;4613;48.392;9.998;2022-11-20T02:24:33;2.40;;;2.17;;
9156;SDS011;4613;48.392;9.998;2022-11-20T02:27:23;2.03;;;1.80;;
9156;SDS011;4613;48.392;9.998;2022-11-20T02:30:12;2.47;;;2.28;;
9156;SDS011;4613;48.392;9.998;2022-11-20T02:33:01;1.70;;;1.60;;
9156;SDS011;4613;48.392;9.998;2022-11-20T02:35:51;2.10;;;1.50;;
9156;SDS011;4613;48.392;9.998;2022-11-20T02:38:41;1.70;;;1.60;;
9156;SDS011;4613;48.392;9.998;2022-11-20T02:41:33;1.55;;;1.45;;
9156;SDS011;4613;48.392;9.998;2022-11-20T02:44:24;1.50;;;1.40;;
9156;SDS011;4613;48.392;9.998;2022-11-20T02:47:13;2.45;;;1.98;;
9156;SDS011;4613;48.392;9.998;2022-11-20T02:50:03;1.67;;;1.52;;
9156;SDS011;4613;48.392;9.998;2022-11-20T02:52:54;2.25;;;1.58;;
9156;SDS011;4613;48.392;9.998;2022-11-20T02:55:43;1.73;;;1.63;;
9156;SDS011;4613;48.392;9.998;2022-11-20T02:58:32;1.50;;;1.40;;
9156;SDS011;4613;48.392;9.998;2022-11-20T03:01:21;1.70;;;1.60;;
9156;SDS011;4613;48.392;9.998;2022-11-20T03:04:11;2.47;;;1.63;;
9156;SDS011;4613;48.392;9.998;2022-11-20T03:07:01;1.52;;;1.42;;
9156;SDS011;4613;48.392;9.998;2022-11-20T03:09:50;2.42;;;2.00;;
9156;SDS011;4613;48.392;9.998;2022-11-20T03:12:41;1.90;;;1.60;;
9156;SDS011;4613;48.392;9.998;2022-11-20T03:15:31;1.80;;;1.70;;
9156;SDS011;4613;48.392;9.998;2022-11-20T03:18:20;2.15;;;1.70;;
9156;SDS011;4613;48.392;9.998;2022-11-20T03:21:10;1.92;;;1.83;;
9156;SDS011;4613;48.392;9.998;2022-11-20T03:24:01;1.65;;;1.55;;
9156;SDS011;4613;48.392;9.998;2022-11-20T03:26:50;1.73;;;1.55;;
9156;SDS011;4613;48.392;9.998;2022-11-20T03:29:40;1.83;;;1.73;;
9156;SDS011;4613;48.392;9.998;2022-11-20T03:32:29;2.22;;;2.00;;
9156;SDS011;4613;48.392;9.998;2022-11-20T03:35:19;1.80;;;1.70;;
9156;SDS011;4613;48.392;9.998;2022-11-20T03:38:09;1.80;;;1.70;;
9156;SDS011;4613;48.392;9.998;2022-11-20T03:40:59;1.80;;;1.70;;
9156;SDS011;4613;48.392;9.998;2022-11-20T03:43:49;1.77;;;1.67;;
9156;SDS011;4613;48.392;9.998;2022-11-20T03:46:42;2.13;;;1.55;;
9156;SDS011;4613;48.392;9.998;2022-11-20T03:49:31;1.67;;;1.55;;
9156;SDS011;4613;48.392;9.998;2022-11-20T03:52:21;1.52;;;1.42;;
9156;SDS011;4613;48.392;9.998;2022-11-20T03:55:10;1.73;;;1.63;;
9156;SDS011;4613;48.392;9.998;2022-11-20T03:58:00;1.65;;;1.55;;
9156;SDS011;4613;48.392;9.998;2022-11-20T04:00:49;1.50;;;1.40;;
9156;SDS011;4613;48.392;9.998;2022-11-20T04:03:38;1.27;;;1.27;;
9156;SDS011;4613;48.392;9.998;2022-11-20T04:06:30;4.22;;;2.28;;
9156;SDS011;4613;48.392;9.998;2022-11-20T04:09:23;2.70;;;1.77;;
9156;SDS011;4613;48.392;9.998;2022-11-20T04:12:12;2.80;;;1.55;;
9156;SDS011;4613;48.392;9.998;2022-11-20T04:15:01;1.73;;;1.63;;
9156;SDS011;4613;48.392;9.998;2022-11-20T04:17:51;1.63;;;1.48;;
9156;SDS011;4613;48.392;9.998;2022-11-20T04:20:42;2.35;;;2.03;;
9156;SDS011;4613;48.392;9.998;2022-11-20T04:23:31;1.95;;;1.73;;
9156;SDS011;4613;48.392;9.998;2022-11-20T04:26:22;1.77;;;1.67;;
9156;SDS011;4613;48.392;9.998;2022-11-20T04:29:12;1.83;;;1.52;;
9156;SDS011;4613;48.392;9.998;2022-11-20T04:32:01;2.22;;;2.03;;
9156;SDS011;4613;48.392;9.998;2022-11-20T04:34:53;2.08;;;1.70;;
9156;SDS011;4613;48.392;9.998;2022-11-20T04:37:42;1.75;;;1.60;;
9156;SDS011;4613;48.392;9.998;2022-11-20T04:40:32;2.47;;;1.67;;
9156;SDS011;4613;48.392;9.998;2022-11-20T04:43:22;2.25;;;2.05;;
9156;SDS011;4613;48.392;9.998;2022-11-20T04:46:11;1.70;;;1.60;;
9156;SDS011;4613;48.392;9.998;2022-11-20T04:49:00;1.90;;;1.70;;
9156;SDS011;4613;48.392;9.998;2022-11-20T04:51:52;1.70;;;1.60;;
9156;SDS011;4613;48.392;9.998;2022-11-20T04:54:42;1.80;;;1.70;;
9156;SDS011;4613;48.392;9.998;2022-11-20T04:57:31;1.98;;;1.70;;
9156;SDS011;4613;48.392;9.998;2022-11-20T05:00:20;1.70;;;1.42;;
9156;SDS011;4613;48.392;9.998;2022-11-20T05:03:09;1.90;;;1.73;;
9156;SDS011;4613;48.392;9.998;2022-11-20T05:06:02;1.65;;;1.55;;
9156;SDS011;4613;48.392;9.998;2022-11-20T05:08:53;2.30;;;1.83;;
9156;SDS011;4613;48.392;9.998;2022-11-20T05:11:43;1.88;;;1.77;;
9156;SDS011;4613;48.392;9.998;2022-11-20T05:14:32;1.90;;;1.70;;
9156;SDS011;4613;48.392;9.998;2022-11-20T05:17:22;2.08;;;1.88;;
9156;SDS011;4613;48.392;9.998;2022-11-20T05:20:11;1.90;;;1.60;;
9156;SDS011;4613;48.392;9.998;2022-11-20T05:23:00;1.67;;;1.58;;
9156;SDS011;4613;48.392;9.998;2022-11-20T05:25:51;2.17;;;1.83;;
9156;SDS011;4613;48.392;9.998;2022-11-20T05:28:45;2.58;;;1.50;;
9156;SDS011;4613;48.392;9.998;2022-11-20T05:31:35;1.60;;;1.50;;
9156;SDS011;4613;48.392;9.998;2022-11-20T05:34:26;2.45;;;1.77;;
9156;SDS011;4613;48.392;9.998;2022-11-20T05:37:15;1.60;;;1.50;;
9156;SDS011;4613;48.392;9.998;2022-11-20T05:40:04;2.63;;;1.98;;
9156;SDS011;4613;48.392;9.998;2022-11-20T05:42:54;2.35;;;2.15;;
9156;SDS011;4613;48.392;9.998;2022-11-20T05:45:51;1.85;;;1.73;;
9156;SDS011;4613;48.392;9.998;2022-11-20T05:48:42;2.33;;;2.13;;
9156;SDS011;4613;48.392;9.998;2022-11-20T05:51:32;2.97;;;2.40;;
9156;SDS011;4613;48.392;9.998;2022-11-20T05:54:21;2.47;;;2.20;;
9156;SDS011;4613;48.392;9.998;2022-11-20T05:57:11;3.08;;;2.33;;
9156;SDS011;4613;48.392;9.998;2022-11-20T06:00:00;2.45;;;2.13;;
9156;SDS011;4613;48.392;9.998;2022-11-20T06:02:53;4.10;;;2.38;;
9156;SDS011;4613;48.392;9.998;2022-11-20T06:05:42;2.88;;;2.47;;
9156;SDS011;4613;48.392;9.998;2022-11-20T06:08:31;2.42;;;2.03;;
9156;SDS011;4613;48.392;9.998;2022-11-20T06:11:22;3.40;;;2.78;;
9156;SDS011;4613;48.392;9.998;2022-11-20T06:14:12;2.08;;;1.90;;
9156;SDS011;4613;48.392;9.998;2022-11-20T06:17:01;2.65;;;2.40;;
9156;SDS011;4613;48.392;9.998;2022-11-20T06:19:53;2.65;;;2.28;;
9156;SDS011;4613;48.392;9.998;2022-11-20T06:22:45;2.33;;;2.13;;
9156;SDS011;4613;48.392;9.998;2022-11-20T06:25:38;3.28;;;2.58;;
9156;SDS011;4613;48.392;9.998;2022-11-20T06:28:29;2.55;;;2.28;;
9156;SDS011;4613;48.392;9.998;2022-11-20T06:31:23;3.17;;;2.40;;
9156;SDS011;4613;48.392;9.998;2022-11-20T06:34:14;1.95;;;1.77;;
9156;SDS011;4613;48.392;9.998;2022-11-20T06:37:03;2.85;;;2.22;;
9156;SDS011;4613;48.392;9.998;2022-11-20T06:39:52;2.90;;;2.60;;
9156;SDS011;4613;48.392;9.998;2022-11-20T06:42:41;3.40;;;3.00;;
9156;SDS011;4613;48.392;9.998;2022-11-20T06:45:30;3.42;;;2.53;;
9156;SDS011;4613;48.392;9.998;2022-11-20T06:48:19;2.63;;;2.42;;
9156;SDS011;4613;48.392;9.998;2022-11-20T06:51:09;3.08;;;2.72;;
9156;SDS011;4613;48.392;9.998;2022-11-20T06:53:58;3.45;;;2.60;;
9156;SDS011;4613;48.392;9.998;2022-11-20T06:56:49;3.03;;;2.70;;
9156;SDS011;4613;48.392;9.998;2022-11-20T06:59:38;3.03;;;2.58;;
9156;SDS011;4613;48.392;9.998;2022-11-20T07:02:28;2.80;;;2.38;;
9156;SDS011;4613;48.392;9.998;2022-11-20T07:05:17;2.90;;;2.20;;
9156;SDS011;4613;48.392;9.998;2022-11-20T07:08:06;3.65;;;2.55;;
9156;SDS011;4613;48.392;9.998;2022-11-20T07:10:59;2.55;;;2.10;;
9156;SDS011;4613;48.392;9.998;2022-11-20T07:13:51;3.08;;;2.70;;
9156;SDS011;4613;48.392;9.998;2022-11-20T07:16:41;2.60;;;2.38;;
9156;SDS011;4613;48.392;9.998;2022-11-20T07:19:31;4.10;;;2.92;;
9156;SDS011;4613;48.392;9.998;2022-11-20T07:22:20;3.20;;;2.40;;
9156;SDS011;4613;48.392;9.998;2022-11-20T07:25:10;3.00;;;2.67;;
9156;SDS011;4613;48.392;9.998;2022-11-20T07:28:00;2.42;;;2.22;;
9156;SDS011;4613;48.392;9.998;2022-11-20T07:30:53;2.45;;;2.25;;
9156;SDS011;4613;48.392;9.998;2022-11-20T07:33:43;2.47;;;2.28;;
9156;SDS011;4613;48.392;9.998;2022-11-20T07:36:32;2.47;;;2.10;;
9156;SDS011;4613;48.392;9.998;2022-11-20T07:39:22;2.35;;;2.15;;
9156;SDS011;4613;48.392;9.998;2022-11-20T07:42:12;3.35;;;2.40;;
9156;SDS011;4613;48.392;9.998;2022-11-20T07:45:01;2.50;;;2.15;;
9156;SDS011;4613;48.392;9.998;2022-11-20T07:47:51;2.20;;;1.95;;
9156;SDS011;4613;48.392;9.998;2022-11-20T07:50:42;3.20;;;2.63;;
9156;SDS011;4613;48.392;9.998;2022-11-20T07:53:31;2.35;;;2.15;;
9156;SDS011;4613;48.392;9.998;2022-11-20T07:56:21;2.72;;;2.20;;
9156;SDS011;4613;48.392;9.998;2022-11-20T07:59:10;2.75;;;2.35;;
9156;SDS011;4613;48.392;9.998;2022-11-20T08:02:00;2.78;;;2.20;;
9156;SDS011;4613;48.392;9.998;2022-11-20T08:04:52;2.67;;;2.05;;
9156;SDS011;4613;48.392;9.998;2022-11-20T08:07:43;3.15;;;2.75;;
9156;SDS011;4613;48.392;9.998;2022-11-20T08:10:33;2.13;;;2.03;;
9156;SDS011;4613;48.392;9.998;2022-11-20T08:13:23;2.38;;;2.17;;
9156;SDS011;4613;48.392;9.998;2022-11-20T08:16:31;2.25;;;2.05;;
9156;SDS011;4613;48.392;9.998;2022-11-20T08:19:21;2.25;;;2.05;;
9156;SDS011;4613;48.392;9.998;2022-11-20T08:22:11;3.88;;;1.98;;
9156;SDS011;4613;48.392;9.998;2022-11-20T08:25:00;2.20;;;2.00;;
9156;SDS011;4613;48.392;9.998;2022-11-20T08:27:50;1.98;;;1.88;;
9156;SDS011;4613;48.392;9.998;2022-11-20T08:30:39;2.25;;;1.80;;
9156;SDS011;4613;48.392;9.998;2022-11-20T08:33:29;1.83;;;1.73;;
9156;SDS011;4613;48.392;9.998;2022-11-20T08:36:19;2.33;;;2.13;;
9156;SDS011;4613;48.392;9.998;2022-11-20T08:39:13;3.55;;;2.25;;
9156;SDS011;4613;48.392;9.998;2022-11-20T08:42:06;2.80;;;2.33;;
9156;SDS011;4613;48.392;9.998;2022-11-20T08:44:56;2.40;;;2.20;;
9156;SDS011;4613;48.392;9.998;2022-11-20T08:47:45;2.92;;;1.95;;
9156;SDS011;4613;48.392;9.998;2022-11-20T08:50:34;3.75;;;2.38;;
9156;SDS011;4613;48.392;9.998;2022-11-20T08:53:23;2.38;;;2.00;;
9156;SDS011;4613;48.392;9.998;2022-11-20T08:56:13;2.17;;;1.90;;
9156;SDS011;4613;48.392;9.998;2022-11-20T08:59:02;2.33;;;1.92;;
9156;SDS011;4613;48.392;9.998;2022-11-20T09:01:55;2.50;;;2.30;;
9156;SDS011;4613;48.392;9.998;2022-11-20T09:04:45;4.43;;;2.22;;
9156;SDS011;4613;48.392;9.998;2022-11-20T09:07:34;2.25;;;2.00;;
9156;SDS011;4613;48.392;9.998;2022-11-20T09:10:25;2.55;;;2.03;;
9156;SDS011;4613;48.392;9.998;2022-11-20T09:13:14;1.63;;;1.52;;
9156;SDS011;4613;48.392;9.998;2022-11-20T09:16:05;2.20;;;2.00;;
9156;SDS011;4613;48.392;9.998;2022-11-20T09:18:57;2.03;;;1.88;;
9156;SDS011;4613;48.392;9.998;2022-11-20T09:21:46;2.20;;;2.00;;
9156;SDS011;4613;48.392;9.998;2022-11-20T09:24:35;2.28;;;2.08;;
9156;SDS011;4613;48.392;9.998;2022-11-20T09:27:25;1.70;;;1.60;;
9156;SDS011;4613;48.392;9.998;2022-11-20T09:30:14;2.28;;;2.00;;
9156;SDS011;4613;48.392;9.998;2022-11-20T09:33:05;1.83;;;1.73;;
9156;SDS011;4613;48.392;9.998;2022-11-20T09:35:54;2.05;;;1.88;;
9156;SDS011;4613;48.392;9.998;2022-11-20T09:38:45;2.20;;;1.70;;
9156;SDS011;4613;48.392;9.998;2022-11-20T09:48:29;2.08;;;1.88;;
9156;SDS011;4613;48.392;9.998;2022-11-20T09:51:50;1.63;;;1.50;;
9156;SDS011;4613;48.392;9.998;2022-11-20T09:55:00;2.80;;;1.50;;
9156;SDS011;4613;48.392;9.998;2022-11-20T09:57:51;1.50;;;1.40;;
9156;SDS011;4613;48.392;9.998;2022-11-20T10:00:41;1.33;;;1.23;;
9156;SDS011;4613;48.392;9.998;2022-11-20T10:03:39;1.50;;;1.40;;
9156;SDS011;4613;48.392;9.998;2022-11-20T10:09:31;2.08;;;1.77;;
9156;SDS011;4613;48.392;9.998;2022-11-20T10:12:33;1.65;;;1.55;;
9156;SDS011;4613;48.392;9.998;2022-11-20T10:15:53;1.60;;;1.50;;
9156;SDS011;4613;48.392;9.998;2022-11-20T10:25:20;1.42;;;1.30;;
9156;SDS011;4613;48.392;9.998;2022-11-20T10:31:25;1.42;;;1.33;;
9156;SDS011;4613;48.392;9.998;2022-11-20T10:34:23;1.23;;;1.08;;
9156;SDS011;4613;48.392;9.998;2022-11-20T10:37:21;1.70;;;1.25;;
9156;SDS011;4613;48.392;9.998;2022-11-20T10:43:39;1.33;;;1.23;;
9156;SDS011;4613;48.392;9.998;2022-11-20T10:46:33;1.38;;;1.15;;
9156;SDS011;4613;48.392;9.998;2022-11-20T10:49:29;1.35;;;1.25;;
9156;SDS011;4613;48.392;9.998;2022-11-20T10:55:45;1.67;;;1.40;;
9156;SDS011;4613;48.392;9.998;2022-11-20T10:58:52;1.17;;;1.15;;
9156;SDS011;4613;48.392;9.998;2022-11-20T11:01:50;1.10;;;1.10;;
9156;SDS011;4613;48.392;9.998;2022-11-20T11:04:40;1.30;;;1.20;;
9156;SDS011;4613;48.392;9.998;2022-11-20T11:07:35;1.27;;;1.17;;
9156;SDS011;4613;48.392;9.998;2022-11-20T11:10:36;1.75;;;1.65;;
9156;SDS011;4613;48.392;9.998;2022-11-20T11:13:47;1.35;;;1.00;;
9156;SDS011;4613;48.392;9.998;2022-11-20T11:16:40;1.38;;;1.27;;
9156;SDS011;4613;48.392;9.998;2022-11-20T11:19:42;1.23;;;1.13;;
9156;SDS011;4613;48.392;9.998;2022-11-20T11:22:33;1.38;;;1.10;;
9156;SDS011;4613;48.392;9.998;2022-11-20T11:25:36;1.65;;;1.05;;
9156;SDS011;4613;48.392;9.998;2022-11-20T11:28:30;1.08;;;1.02;;
9156;SDS011;4613;48.392;9.998;2022-11-20T11:31:26;1.25;;;1.13;;
9156;SDS011;4613;48.392;9.998;2022-11-20T11:34:30;1.00;;;1.00;;
9156;SDS011;4613;48.392;9.998;2022-11-20T11:37:23;1.02;;;1.00;;
9156;SDS011;4613;48.392;9.998;2022-11-20T11:40:18;1.25;;;1.20;;
9156;SDS011;4613;48.392;9.998;2022-11-20T11:43:23;0.93;;;0.93;;
9156;SDS011;4613;48.392;9.998;2022-11-20T11:46:43;1.15;;;1.05;;
9156;SDS011;4613;48.392;9.998;2022-11-20T11:49:45;1.48;;;1.38;;
9156;SDS011;4613;48.392;9.998;2022-11-20T11:58:52;1.55;;;1.20;;
9156;SDS011;4613;48.392;9.998;2022-11-20T12:01:57;1.20;;;1.10;;
9156;SDS011;4613;48.392;9.998;2022-11-20T12:11:43;1.13;;;1.02;;
9156;SDS011;4613;48.392;9.998;2022-11-20T12:14:45;1.73;;;1.35;;
9156;SDS011;4613;48.392;9.998;2022-11-20T12:17:39;1.13;;;1.13;;
9156;SDS011;4613;48.392;9.998;2022-11-20T12:20:32;2.25;;;1.30;;
9156;SDS011;4613;48.392;9.998;2022-11-20T12:29:56;1.20;;;1.15;;
9156;SDS011;4613;48.392;9.998;2022-11-20T12:36:44;1.00;;;1.00;;
9156;SDS011;4613;48.392;9.998;2022-11-20T12:39:51;1.95;;;1.00;;
9156;SDS011;4613;48.392;9.998;2022-11-20T12:49:20;1.05;;;1.05;;
9156;SDS011;4613;48.392;9.998;2022-11-20T12:55:31;1.70;;;1.17;;
9156;SDS011;4613;48.392;9.998;2022-11-20T12:58:37;1.50;;;1.33;;
9156;SDS011;4613;48.392;9.998;2022-11-20T13:01:40;1.20;;;1.10;;
9156;SDS011;4613;48.392;9.998;2022-11-20T13:08:24;1.00;;;0.87;;
9156;SDS011;4613;48.392;9.998;2022-11-20T13:11:35;1.33;;;1.23;;
9156;SDS011;4613;48.392;9.998;2022-11-20T13:14:39;1.00;;;0.93;;
9156;SDS011;4613;48.392;9.998;2022-11-20T13:20:56;0.67;;;0.60;;
9156;SDS011;4613;48.392;9.998;2022-11-20T13:23:48;0.43;;;0.43;;
9156;SDS011;4613;48.392;9.998;2022-11-20T13:26:40;0.67;;;0.67;;
9156;SDS011;4613;48.392;9.998;2022-11-20T13:29:33;0.70;;;0.70;;
9156;SDS011;4613;48.392;9.998;2022-11-20T13:32:25;0.70;;;0.70;;
9156;SDS011;4613;48.392;9.998;2022-11-20T13:35:31;0.73;;;0.73;;
9156;SDS011;4613;48.392;9.998;2022-11-20T13:38:49;0.60;;;0.60;;
9156;SDS011;4613;48.392;9.998;2022-11-20T13:41:41;0.60;;;0.60;;
9156;SDS011;4613;48.392;9.998;2022-11-20T13:44:46;0.50;;;0.50;;
9156;SDS011;4613;48.392;9.998;2022-11-20T13:47:46;0.63;;;0.63;;
9156;SDS011;4613;48.392;9.998;2022-11-20T13:50:44;0.77;;;0.77;;
9156;SDS011;4613;48.392;9.998;2022-11-20T14:01:11;0.60;;;0.60;;
9156;SDS011;4613;48.392;9.998;2022-11-20T14:04:06;0.60;;;0.60;;
9156;SDS011;4613;48.392;9.998;2022-11-20T14:06:57;0.63;;;0.60;;
9156;SDS011;4613;48.392;9.998;2022-11-20T14:09:51;0.57;;;0.57;;
9156;SDS011;4613;48.392;9.998;2022-11-20T14:12:42;0.60;;;0.60;;
9156;SDS011;4613;48.392;9.998;2022-11-20T14:15:32;1.60;;;0.80;;
9156;SDS011;4613;48.392;9.998;2022-11-20T14:18:22;0.93;;;0.53;;
9156;SDS011;4613;48.392;9.998;2022-11-20T14:21:24;0.60;;;0.60;;
9156;SDS011;4613;48.392;9.998;2022-11-20T14:24:19;0.80;;;0.80;;
9156;SDS011;4613;48.392;9.998;2022-11-20T14:27:12;0.43;;;0.43;;
9156;SDS011;4613;48.392;9.998;2022-11-20T14:30:02;0.90;;;0.77;;
9156;SDS011;4613;48.392;9.998;2022-11-20T14:32:54;0.60;;;0.60;;
9156;SDS011;4613;48.392;9.998;2022-11-20T14:35:52;0.77;;;0.77;;
9156;SDS011;4613;48.392;9.998;2022-11-20T14:38:43;0.40;;;0.40;;
9156;SDS011;4613;48.392;9.998;2022-11-20T14:41:37;0.50;;;0.50;;
9156;SDS011;4613;48.392;9.998;2022-11-20T14:44:31;0.70;;;0.70;;
9156;SDS011;4613;48.392;9.998;2022-11-20T14:47:23;0.80;;;0.80;;
9156;SDS011;4613;48.392;9.998;2022-11-20T14:50:33;0.60;;;0.60;;
9156;SDS011;4613;48.392;9.998;2022-11-20T14:53:23;0.95;;;0.80;;
9156;SDS011;4613;48.392;9.998;2022-11-20T14:56:14;0.60;;;0.60;;
9156;SDS011;4613;48.392;9.998;2022-11-20T14:59:11;0.60;;;0.60;;
9156;SDS011;4613;48.392;9.998;2022-11-20T15:02:13;0.43;;;0.43;;
9156;SDS011;4613;48.392;9.998;2022-11-20T15:05:07;0.57;;;0.40;;
9156;SDS011;4613;48.392;9.998;2022-11-20T15:08:07;0.70;;;0.70;;
9156;SDS011;4613;48.392;9.998;2022-11-20T15:10:58;0.60;;;0.60;;
9156;SDS011;4613;48.392;9.998;2022-11-20T15:13:47;0.60;;;0.60;;
9156;SDS011;4613;48.392;9.998;2022-11-20T15:16:37;0.50;;;0.50;;
9156;SDS011;4613;48.392;9.998;2022-11-20T15:19:28;0.90;;;0.90;;
9156;SDS011;4613;48.392;9.998;2022-11-20T15:22:18;3.42;;;0.90;;
9156;SDS011;4613;48.392;9.998;2022-11-20T15:25:11;1.10;;;0.90;;
9156;SDS011;4613;48.392;9.998;2022-11-20T15:28:04;0.90;;;0.90;;
9156;SDS011;4613;48.392;9.998;2022-11-20T15:31:09;1.30;;;0.80;;
9156;SDS011;4613;48.392;9.998;2022-11-20T15:34:04;2.00;;;1.23;;
9156;SDS011;4613;48.392;9.998;2022-11-20T15:36:56;0.95;;;0.95;;
9156;SDS011;4613;48.392;9.998;2022-11-20T15:39:45;0.70;;;0.70;;
9156;SDS011;4613;48.392;9.998;2022-11-20T15:42:35;0.80;;;0.80;;
9156;SDS011;4613;48.392;9.998;2022-11-20T15:45:25;0.80;;;0.80;;
9156;SDS011;4613;48.392;9.998;2022-11-20T15:48:24;2.47;;;1.00;;
9156;SDS011;4613;48.392;9.998;2022-11-20T15:51:22;0.82;;;0.82;;
9156;SDS011;4613;48.392;9.998;2022-11-20T15:54:18;0.95;;;0.93;;
9156;SDS011;4613;48.392;9.998;2022-11-20T15:57:11;3.03;;;1.20;;
9156;SDS011;4613;48.392;9.998;2022-11-20T16:00:02;1.92;;;1.00;;
9156;SDS011;4613;48.392;9.998;2022-11-20T16:02:59;0.80;;;0.80;;
9156;SDS011;4613;48.392;9.998;2022-11-20T16:05:48;1.20;;;1.00;;
9156;SDS011;4613;48.392;9.998;2022-11-20T16:08:38;0.80;;;0.80;;
9156;SDS011;4613;48.392;9.998;2022-11-20T16:11:27;0.90;;;0.90;;
9156;SDS011;4613;48.392;9.998;2022-11-20T16:14:17;1.23;;;1.10;;
9156;SDS011;4613;48.392;9.998;2022-11-20T16:17:25;1.33;;;1.10;;
9156;SDS011;4613;48.392;9.998;2022-11-20T16:20:31;1.42;;;1.33;;
9156;SDS011;4613;48.392;9.998;2022-11-20T16:23:20;0.82;;;0.82;;
9156;SDS011;4613;48.392;9.998;2022-11-20T16:26:14;1.05;;;1.00;;
9156;SDS011;4613;48.392;9.998;2022-11-20T16:29:08;1.77;;;1.02;;
9156;SDS011;4613;48.392;9.998;2022-11-20T16:32:01;0.90;;;0.90;;
9156;SDS011;4613;48.392;9.998;2022-11-20T16:34:51;1.00;;;1.00;;
9156;SDS011;4613;48.392;9.998;2022-11-20T16:37:40;1.10;;;1.00;;
9156;SDS011;4613;48.392;9.998;2022-11-20T16:40:32;1.33;;;1.23;;
9156;SDS011;4613;48.392;9.998;2022-11-20T16:43:26;1.05;;;1.05;;
9156;SDS011;4613;48.392;9.998;2022-11-20T16:46:15;1.40;;;1.30;;
9156;SDS011;4613;48.392;9.998;2022-11-20T16:49:06;1.90;;;1.27;;
9156;SDS011;4613;48.392;9.998;2022-11-20T16:52:00;1.20;;;1.10;;
9156;SDS011;4613;48.392;9.998;2022-11-20T16:54:49;1.00;;;1.00;;
9156;SDS011;4613;48.392;9.998;2022-11-20T16:57:39;1.63;;;1.00;;
9156;SDS011;4613;48.392;9.998;2022-11-20T17:00:36;2.10;;;1.30;;
9156;SDS011;4613;48.392;9.998;2022-11-20T17:03:29;1.30;;;1.20;;
9156;SDS011;4613;48.392;9.998;2022-11-20T17:06:19;12.35;;;5.25;;
9156;SDS011;4613;48.392;9.998;2022-11-20T17:09:12;3.25;;;2.03;;
9156;SDS011;4613;48.392;9.998;2022-11-20T17:12:05;2.53;;;1.73;;
9156;SDS011;4613;48.392;9.998;2022-11-20T17:18:15;1.52;;;1.42;;
9156;SDS011;4613;48.392;9.998;2022-11-20T17:21:08;2.72;;;1.60;;
9156;SDS011;4613;48.392;9.998;2022-11-20T17:24:56;2.33;;;1.65;;
9156;SDS011;4613;48.392;9.998;2022-11-20T17:28:03;2.25;;;1.63;;
9156;SDS011;4613;48.392;9.998;2022-11-20T17:31:02;1.63;;;1.42;;
9156;SDS011;4613;48.392;9.998;2022-11-20T17:34:13;1.83;;;1.40;;
9156;SDS011;4613;48.392;9.998;2022-11-20T17:37:25;1.33;;;1.23;;
9156;SDS011;4613;48.392;9.998;2022-11-20T17:40:24;1.38;;;1.27;;
9156;SDS011;4613;48.392;9.998;2022-11-20T17:43:14;1.83;;;1.40;;
9156;SDS011;4613;48.392;9.998;2022-11-20T17:46:07;1.77;;;1.67;;
9156;SDS011;4613;48.392;9.998;2022-11-20T17:48:58;1.63;;;1.52;;
9156;SDS011;4613;48.392;9.998;2022-11-20T17:51:56;1.80;;;1.67;;
9156;SDS011;4613;48.392;9.998;2022-11-20T17:54:46;1.58;;;1.48;;
9156;SDS011;4613;48.392;9.998;2022-11-20T17:57:43;1.70;;;1.60;;
9156;SDS011;4613;48.392;9.998;2022-11-20T18:00:47;1.40;;;1.30;;
9156;SDS011;4613;48.392;9.998;2022-11-20T18:03:38;1.77;;;1.45;;
9156;SDS011;4613;48.392;9.998;2022-11-20T18:06:28;1.60;;;1.50;;
9156;SDS011;4613;48.392;9.998;2022-11-20T18:09:20;3.33;;;1.92;;
9156;SDS011;4613;48.392;9.998;2022-11-20T18:12:12;2.03;;;1.88;;
9156;SDS011;4613;48.392;9.998;2022-11-20T18:15:05;3.20;;;1.55;;
9156;SDS011;4613;48.392;9.998;2022-11-20T18:17:55;1.50;;;1.38;;
9156;SDS011;4613;48.392;9.998;2022-11-20T18:20:52;1.50;;;1.40;;
9156;SDS011;4613;48.392;9.998;2022-11-20T18:23:42;1.63;;;1.52;;
9156;SDS011;4613;48.392;9.998;2022-11-20T18:26:31;1.65;;;1.55;;
9156;SDS011;4613;48.392;9.998;2022-11-20T18:29:21;3.25;;;1.70;;
9156;SDS011;4613;48.392;9.998;2022-11-20T18:32:13;1.40;;;1.30;;
9156;SDS011;4613;48.392;9.998;2022-11-20T18:35:03;1.40;;;1.30;;
9156;SDS011;4613;48.392;9.998;2022-11-20T18:37:53;1.80;;;1.55;;
9156;SDS011;4613;48.392;9.998;2022-11-20T18:40:47;1.80;;;1.50;;
9156;SDS011;4613;48.392;9.998;2022-11-20T18:43:36;1.27;;;1.17;;
9156;SDS011;4613;48.392;9.998;2022-11-20T18:46:45;1.35;;;1.25;;
9156;SDS011;4613;48.392;9.998;2022-11-20T18:49:36;1.50;;;1.40;;
9156;SDS011;4613;48.392;9.998;2022-11-20T18:52:40;1.42;;;1.33;;
9156;SDS011;4613;48.392;9.998;2022-11-20T18:55:34;1.95;;;1.42;;
9156;SDS011;4613;48.392;9.998;2022-11-20T18:58:26;1.52;;;1.38;;
9156;SDS011;4613;48.392;9.998;2022-11-20T19:01:17;1.38;;;1.30;;
9156;SDS011;4613;48.392;9.998;2022-11-20T19:04:17;1.55;;;1.45;;
9156;SDS011;4613;48.392;9.998;2022-11-20T19:07:07;2.15;;;1.60;;
9156;SDS011;4613;48.392;9.998;2022-11-20T19:10:02;2.25;;;2.05;;
9156;SDS011;4613;48.392;9.998;2022-11-20T19:12:54;2.85;;;2.08;;
9156;SDS011;4613;48.392;9.998;2022-11-20T19:15:46;1.98;;;1.75;;